Time;durP1;ratioP1;P1;durP2;ratioP2;P2;SDS_P1;SDS_P2;PMS_P1;PMS_P2;Temp;Humidity;BMP_temperature;BMP_pressure;BME280_temperature;BME280_humidity;BME280_pressure;Samples;Min_cycle;Max_cycle;Signal;HPM_P1;HPM_P2
2021/11/15 00:02:29;;;;;;;59.40;31.50;;;;;;;7.77;67.56;100136.11;212253;1329;140110;-60
2021/11/15 00:07:32;;;;;;;58.60;31.10;;;;;;;7.78;67.53;100137.84;212154;1328;140036;-58
2021/11/15 00:12:35;;;;;;;59.60;30.70;;;;;;;7.76;67.39;100142.67;211571;1321;140020;-59
2021/11/15 00:17:39;;;;;;;57.30;31.90;;;;;;;7.75;67.57;100138.68;212037;1328;139756;-62
2021/11/15 00:22:42;;;;;;;53.50;29.70;;;;;;;7.72;67.40;100142.27;211743;1329;138751;-61
2021/11/15 00:27:46;;;;;;;59.40;30.50;;;;;;;7.70;67.52;100146.05;211956;1325;139416;-60
2021/11/15 00:32:49;;;;;;;58.80;30.80;;;;;;;7.67;67.70;100151.10;211537;1325;139422;-59
2021/11/15 00:37:52;;;;;;;51.50;29.30;;;;;;;7.63;67.37;100151.60;212302;1324;138927;-59
2021/11/15 00:42:56;;;;;;;51.90;29.20;;;;;;;7.60;67.65;100146.91;211991;1329;140296;-59
2021/11/15 00:47:59;;;;;;;55.00;30.40;;;;;;;7.64;67.63;100147.32;211570;1333;139706;-60
2021/11/15 00:53:02;;;;;;;52.90;29.60;;;;;;;7.66;67.42;100145.30;212769;1325;139308;-60
2021/11/15 00:58:06;;;;;;;54.70;29.70;;;;;;;7.67;67.42;100147.39;212877;1324;140115;-61
2021/11/15 01:03:12;;;;;;;53.70;29.20;;;;;;;7.66;67.45;100153.63;212037;1324;139839;-59
2021/11/15 01:08:17;;;;;;;51.00;28.60;;;;;;;7.60;67.37;100158.04;212132;1329;139366;-58
2021/11/15 01:13:21;;;;;;;52.10;29.30;;;;;;;7.56;67.43;100161.70;211885;1325;139468;-60
2021/11/15 01:18:24;;;;;;;49.10;26.70;;;;;;;7.55;67.52;100167.91;211998;1327;139002;-59
2021/11/15 01:23:27;;;;;;;47.70;28.10;;;;;;;7.52;67.37;100165.71;212469;1325;139616;-64
2021/11/15 01:28:30;;;;;;;54.30;28.80;;;;;;;7.48;67.55;100173.61;211783;1329;139286;-59
2021/11/15 01:33:33;;;;;;;52.20;28.20;;;;;;;7.51;67.64;100173.52;212137;1325;140770;-62
2021/11/15 01:38:37;;;;;;;49.70;28.10;;;;;;;7.54;67.54;100180.29;211639;1324;139442;-58
2021/11/15 01:43:40;;;;;;;47.70;28.50;;;;;;;7.55;67.70;100179.22;212502;1325;140358;-58
2021/11/15 01:48:43;;;;;;;47.90;28.50;;;;;;;7.57;67.89;100182.33;212113;1325;140307;-57
2021/11/15 01:53:47;;;;;;;49.60;29.90;;;;;;;7.58;67.77;100186.17;212327;1325;139557;-57
2021/11/15 01:58:50;;;;;;;47.40;28.70;;;;;;;7.57;67.83;100185.85;212036;1328;139668;-58
2021/11/15 02:03:53;;;;;;;43.20;27.10;;;;;;;7.50;67.74;100189.79;211786;1331;140371;-58
2021/11/15 02:08:56;;;;;;;46.30;28.20;;;;;;;7.43;67.60;100188.95;211641;1325;139796;-58
2021/11/15 02:14:00;;;;;;;44.60;27.10;;;;;;;7.35;67.68;100191.15;211865;1329;139330;-59
2021/11/15 02:19:04;;;;;;;47.40;27.30;;;;;;;7.30;67.80;100189.33;212787;1325;141046;-60
2021/11/15 02:24:08;;;;;;;49.20;28.50;;;;;;;7.31;68.05;100192.83;212274;1325;139589;-58
2021/11/15 02:29:11;;;;;;;48.60;28.10;;;;;;;7.35;68.18;100195.89;211535;1327;140299;-59
2021/11/15 02:34:14;;;;;;;51.70;29.30;;;;;;;7.34;68.02;100198.92;211574;1325;139275;-57
2021/11/15 02:39:18;;;;;;;48.80;30.10;;;;;;;7.33;68.00;100201.24;212628;1327;140765;-58
2021/11/15 02:44:21;;;;;;;55.90;30.40;;;;;;;7.32;68.24;100205.70;212093;1325;139432;-59
2021/11/15 02:49:24;;;;;;;52.20;31.00;;;;;;;7.31;68.20;100215.27;212316;1325;139687;-60
2021/11/15 02:54:27;;;;;;;55.10;32.70;;;;;;;7.27;67.96;100219.09;212217;1325;140511;-58
2021/11/15 02:59:30;;;;;;;56.50;31.30;;;;;;;7.26;68.29;100220.71;212245;1325;139897;-56
2021/11/15 03:04:33;;;;;;;52.20;29.20;;;;;;;7.25;68.14;100223.58;211898;1325;140271;-56
2021/11/15 03:09:39;;;;;;;54.50;30.80;;;;;;;7.25;68.14;100222.13;212011;1326;139749;-59
2021/11/15 03:14:42;;;;;;;;;;;;;;;7.27;68.29;100223.85;212077;1325;210237;-59
2021/11/15 03:19:45;;;;;;;53.60;30.40;;;;;;;7.26;68.24;100227.05;212000;1331;125390;-61
2021/11/15 03:24:50;;;;;;;55.80;30.40;;;;;;;7.26;68.28;100233.78;211888;1326;139490;-60
2021/11/15 03:29:53;;;;;;;52.30;29.80;;;;;;;7.29;68.08;100233.30;212179;1330;138878;-58
2021/11/15 03:35:01;;;;;;;54.10;30.20;;;;;;;7.29;68.18;100229.97;211596;1331;139125;-60
2021/11/15 03:40:11;;;;;;;48.90;28.40;;;;;;;7.23;68.03;100229.10;212809;1325;140077;-59
2021/11/15 03:45:15;;;;;;;49.70;26.70;;;;;;;7.16;67.98;100234.41;212212;1325;139206;-61
2021/11/15 03:50:18;;;;;;;40.60;24.80;;;;;;;7.17;68.28;100223.08;212250;1328;140696;-60
2021/11/15 03:55:23;;;;;;;46.40;24.10;;;;;;;7.17;68.10;100227.32;211931;1325;139885;-59
2021/11/15 04:00:34;;;;;;;35.00;19.50;;;;;;;7.12;67.89;100226.39;211816;1325;139028;-57
2021/11/15 04:05:38;;;;;;;44.60;24.50;;;;;;;7.09;68.03;100226.52;212265;1323;139899;-59
2021/11/15 04:10:45;;;;;;;40.00;24.70;;;;;;;7.06;68.22;100232.74;212058;1328;139887;-58
2021/11/15 04:15:51;;;;;;;42.90;23.80;;;;;;;7.03;68.03;100234.60;211962;1324;138960;-59
2021/11/15 04:20:56;;;;;;;354.80;240.60;;;;;;;7.00;68.39;100239.27;212500;1324;139716;-59
2021/11/15 04:25:59;;;;;;;39.00;24.30;;;;;;;7.09;68.57;100236.72;211761;1332;140399;-59
2021/11/15 04:31:03;;;;;;;40.10;24.30;;;;;;;7.13;68.29;100223.55;212283;1324;141585;-59
2021/11/15 04:36:06;;;;;;;40.30;23.50;;;;;;;7.13;68.21;100223.04;211912;1324;139820;-59
2021/11/15 04:41:09;;;;;;;45.00;26.00;;;;;;;7.07;68.24;100223.90;212109;1328;139664;-59
2021/11/15 04:46:12;;;;;;;45.70;26.40;;;;;;;7.04;68.14;100222.92;212087;1331;142142;-62
2021/11/15 04:51:16;;;;;;;42.70;25.50;;;;;;;7.04;68.16;100219.92;212032;1325;142019;-59
2021/11/15 04:56:19;;;;;;;43.40;26.70;;;;;;;6.95;68.33;100219.48;212191;1325;139380;-59
2021/11/15 05:01:22;;;;;;;44.20;25.70;;;;;;;6.89;68.36;100219.13;211850;1325;139939;-59
2021/11/15 05:06:25;;;;;;;48.80;27.40;;;;;;;6.85;68.39;100219.76;212168;1328;140322;-59
2021/11/15 05:11:28;;;;;;;47.20;26.90;;;;;;;6.84;68.32;100214.66;212015;1325;139644;-58
2021/11/15 05:16:34;;;;;;;49.40;28.20;;;;;;;6.88;68.35;100219.67;211987;1322;140229;-59
2021/11/15 05:21:37;;;;;;;50.30;28.20;;;;;;;6.92;68.33;100218.15;211784;1326;140354;-59
2021/11/15 05:26:40;;;;;;;51.60;28.80;;;;;;;6.94;68.46;100217.95;212554;1323;140503;-59
2021/11/15 05:31:44;;;;;;;51.80;30.30;;;;;;;6.95;68.32;100220.17;212355;1325;140998;-58
2021/11/15 05:36:47;;;;;;;51.20;29.50;;;;;;;6.91;68.33;100218.70;211769;1328;138873;-60
2021/11/15 05:41:51;;;;;;;52.10;29.30;;;;;;;6.85;68.55;100226.61;212048;1328;140118;-58
2021/11/15 05:46:54;;;;;;;52.50;30.60;;;;;;;6.81;68.38;100230.27;211841;1331;139884;-58
2021/11/15 05:51:57;;;;;;;55.50;31.40;;;;;;;6.78;68.47;100233.00;212051;1323;139911;-58
2021/11/15 05:57:01;;;;;;;56.50;30.60;;;;;;;6.80;68.67;100235.95;212132;1329;140466;-62
2021/11/15 06:02:04;;;;;;;55.90;31.60;;;;;;;6.86;68.58;100244.77;212443;1326;140137;-60
2021/11/15 06:07:07;;;;;;;59.20;31.70;;;;;;;6.89;68.62;100257.04;211985;1325;139383;-61
2021/11/15 06:12:10;;;;;;;64.40;33.10;;;;;;;6.93;68.58;100263.82;211932;1324;142932;-59
2021/11/15 06:17:15;;;;;;;59.30;33.00;;;;;;;6.91;68.59;100267.59;212234;1325;139305;-60
2021/11/15 06:22:18;;;;;;;65.50;33.90;;;;;;;6.88;68.48;100266.58;212103;1331;139095;-61
2021/11/15 06:27:21;;;;;;;62.60;34.70;;;;;;;6.91;68.41;100264.59;211863;1328;141847;-59
2021/11/15 06:32:24;;;;;;;64.70;33.20;;;;;;;6.87;68.74;100266.62;211954;1325;139062;-57
2021/11/15 06:37:27;;;;;;;65.30;33.80;;;;;;;6.87;68.55;100263.97;212680;1325;139775;-59
2021/11/15 06:42:31;;;;;;;61.90;33.20;;;;;;;6.91;68.57;100265.09;212347;1329;140764;-59
2021/11/15 06:47:38;;;;;;;64.20;33.70;;;;;;;6.97;68.86;100266.36;211820;1332;139708;-59
2021/11/15 06:52:41;;;;;;;70.70;34.80;;;;;;;7.02;68.89;100269.91;211826;1328;138933;-59
2021/11/15 06:57:45;;;;;;;71.10;35.60;;;;;;;7.04;68.75;100262.45;212320;1331;139753;-60
2021/11/15 07:02:53;;;;;;;65.10;34.10;;;;;;;7.07;68.71;100267.48;212352;1324;141095;-59
2021/11/15 07:07:57;;;;;;;65.40;32.80;;;;;;;7.01;68.47;100275.77;211715;1331;139545;-61
2021/11/15 07:13:00;;;;;;;75.70;36.20;;;;;;;6.98;68.61;100271.08;211897;1325;139017;-61
2021/11/15 07:18:05;;;;;;;;;;;;;;;7.03;68.93;100276.42;213153;1324;139272;-60
2021/11/15 07:23:09;;;;;;;62.90;32.30;;;;;;;6.99;68.58;100280.77;212124;1327;126632;-58
2021/11/15 07:28:12;;;;;;;72.10;34.80;;;;;;;6.98;68.80;100282.39;212155;1327;139787;-62
2021/11/15 07:33:16;;;;;;;64.90;33.70;;;;;;;7.02;68.59;100287.21;212219;1325;140511;-60
2021/11/15 07:38:20;;;;;;;67.90;33.40;;;;;;;7.04;68.90;100284.85;212034;1323;139209;-59
2021/11/15 07:43:23;;;;;;;72.80;34.10;;;;;;;7.08;68.70;100289.52;211965;1331;139380;-59
2021/11/15 07:48:28;;;;;;;76.10;36.00;;;;;;;7.11;68.91;100286.58;212334;1327;139389;-59
2021/11/15 07:53:35;;;;;;;74.00;34.30;;;;;;;7.13;68.70;100287.97;212605;1325;140243;-59
2021/11/15 07:58:39;;;;;;;77.10;34.80;;;;;;;7.10;68.83;100292.81;211956;1329;139732;-57
2021/11/15 08:03:42;;;;;;;69.50;32.80;;;;;;;7.14;68.96;100294.82;211870;1325;140771;-56
2021/11/15 08:08:47;;;;;;;75.50;35.10;;;;;;;7.16;68.94;100304.29;211956;1325;139735;-59
2021/11/15 08:13:50;;;;;;;74.10;34.50;;;;;;;7.18;69.14;100304.93;211688;1331;139400;-59
2021/11/15 08:18:53;;;;;;;73.10;34.20;;;;;;;7.20;69.04;100300.48;212204;1329;139821;-56
2021/11/15 08:24:25;;;;;;;75.20;35.10;;;;;;;7.21;68.95;100303.09;211686;1333;138850;-59
2021/11/15 08:29:32;;;;;;;71.10;33.70;;;;;;;7.23;68.87;100299.69;212536;1328;139172;-60
2021/11/15 08:34:35;;;;;;;83.70;34.60;;;;;;;7.23;69.06;100297.90;211827;1328;139362;-59
2021/11/15 08:39:38;;;;;;;79.30;33.10;;;;;;;7.28;68.95;100298.84;212034;1330;140680;-59
2021/11/15 08:44:51;;;;;;;78.90;34.30;;;;;;;7.36;69.00;100305.87;212414;1331;140753;-62
2021/11/15 08:49:54;;;;;;;72.30;34.90;;;;;;;7.46;69.07;100305.74;211658;1328;140398;-61
2021/11/15 08:54:58;;;;;;;77.30;34.20;;;;;;;7.54;69.13;100313.09;211637;1333;139878;-57
2021/11/15 09:00:01;;;;;;;69.90;33.50;;;;;;;7.62;68.96;100308.64;212029;1327;139948;-64
2021/11/15 09:05:05;;;;;;;68.50;32.80;;;;;;;7.63;68.84;100305.96;212047;1329;139504;-62
2021/11/15 09:10:10;;;;;;;250.10;129.20;;;;;;;7.66;69.04;100306.73;212001;1329;139299;-59
2021/11/15 09:15:15;;;;;;;85.90;36.20;;;;;;;7.71;68.83;100304.11;212102;1331;140708;-58
2021/11/15 09:20:18;;;;;;;82.00;34.50;;;;;;;7.72;68.92;100303.22;212462;1331;139930;-59
2021/11/15 09:25:22;;;;;;;80.70;35.10;;;;;;;7.73;68.71;100299.83;212195;1326;139551;-58
2021/11/15 09:30:25;;;;;;;82.50;33.80;;;;;;;7.72;68.68;100295.80;212473;1328;140814;-58
2021/11/15 09:35:29;;;;;;;76.80;33.40;;;;;;;7.69;68.83;100291.30;211970;1331;140003;-57
2021/11/15 09:40:33;;;;;;;73.40;32.50;;;;;;;7.67;68.75;100293.29;211663;1331;139339;-60
2021/11/15 09:45:37;;;;;;;70.80;32.80;;;;;;;7.65;68.70;100292.12;211807;1331;139556;-59
2021/11/15 09:50:40;;;;;;;66.10;30.50;;;;;;;7.66;68.88;100288.03;211700;1331;138917;-58
2021/11/15 09:55:43;;;;;;;70.10;31.20;;;;;;;7.70;68.81;100285.08;211778;1328;139289;-60
2021/11/15 10:00:46;;;;;;;65.40;30.80;;;;;;;7.76;68.89;100276.05;212081;1328;142340;-59
2021/11/15 10:05:49;;;;;;;64.60;31.60;;;;;;;7.82;68.73;100271.61;211847;1331;140344;-60
2021/11/15 10:10:57;;;;;;;294.30;175.10;;;;;;;7.93;68.94;100272.02;211775;1324;139748;-59
2021/11/15 10:16:07;;;;;;;66.60;35.40;;;;;;;8.08;69.11;100269.92;211975;1323;139903;-60
2021/11/15 10:21:42;;;;;;;68.70;31.10;;;;;;;8.14;68.76;100264.98;211987;1331;139645;-61
2021/11/15 10:26:53;;;;;;;59.70;29.20;;;;;;;8.15;68.58;100264.60;211509;1337;139341;-61
2021/11/15 10:32:13;;;;;;;62.00;31.30;;;;;;;8.12;68.39;100264.14;211888;1331;139441;-61
2021/11/15 10:37:27;;;;;;;60.20;30.50;;;;;;;8.14;68.56;100262.67;211987;1324;139926;-59
2021/11/15 10:42:32;;;;;;;61.70;29.50;;;;;;;8.15;68.42;100266.71;212191;1330;139577;-60
2021/11/15 10:47:41;;;;;;;60.60;29.70;;;;;;;8.18;68.31;100269.96;211792;1326;140100;-58
2021/11/15 10:52:56;;;;;;;54.70;28.10;;;;;;;8.25;68.46;100272.20;212181;1328;140042;-60
2021/11/15 10:57:59;;;;;;;61.70;29.90;;;;;;;8.34;68.51;100263.96;212050;1324;139766;-60
2021/11/15 11:03:09;;;;;;;62.10;30.20;;;;;;;8.37;68.35;100264.95;212157;1324;139154;-62
2021/11/15 11:08:17;;;;;;;63.80;31.10;;;;;;;8.38;68.28;100263.70;212097;1328;141249;-60
2021/11/15 11:13:25;;;;;;;71.20;33.90;;;;;;;8.34;68.23;100261.50;212009;1325;209741;-59
2021/11/15 11:29:14;;;;;;;75.40;35.00;;;;;;;8.40;68.59;100263.79;212120;1324;139865;-59
2021/11/15 11:34:19;;;;;;;77.60;36.00;;;;;;;8.39;68.19;100265.25;212192;1324;139822;-59
2021/11/15 11:39:24;;;;;;;90.80;36.50;;;;;;;8.39;68.34;100267.73;211813;1325;139023;-58
2021/11/15 11:44:29;;;;;;;89.10;38.50;;;;;;;8.38;68.21;100265.98;211660;1327;139885;-60
2021/11/15 11:49:35;;;;;;;91.20;39.40;;;;;;;8.33;68.23;100264.01;211946;1324;139582;-58
2021/11/15 11:54:41;;;;;;;87.20;38.40;;;;;;;8.27;68.10;100262.41;212404;1325;140772;-58
2021/11/15 11:59:44;;;;;;;89.30;38.60;;;;;;;8.21;68.16;100265.12;211570;1324;140325;-59
2021/11/15 12:04:59;;;;;;;316.90;173.40;;;;;;;8.16;68.20;100262.07;212328;1324;139722;-57
2021/11/15 12:10:10;;;;;;;89.80;39.00;;;;;;;8.21;68.49;100257.83;212567;1324;139574;-57
2021/11/15 12:15:34;;;;;;;92.10;39.70;;;;;;;8.24;68.32;100260.91;211820;1329;140454;-55
2021/11/15 12:20:59;;;;;;;91.20;38.90;;;;;;;8.26;68.37;100253.80;211575;1325;139123;-57
2021/11/15 12:26:08;;;;;;;91.50;39.50;;;;;;;8.28;68.53;100254.09;211862;1327;140581;-57
2021/11/15 12:31:14;;;;;;;82.80;38.30;;;;;;;8.27;68.37;100249.70;212199;1324;140229;-59
2021/11/15 12:36:25;;;;;;;78.30;37.80;;;;;;;8.26;68.67;100251.66;212411;1325;139621;-59
2021/11/15 12:41:29;;;;;;;75.20;36.10;;;;;;;8.31;68.63;100255.04;212050;1327;139356;-57
2021/11/15 12:46:57;;;;;;;78.70;37.10;;;;;;;8.27;68.58;100253.95;212032;1325;139560;-58
2021/11/15 12:52:04;;;;;;;73.30;32.80;;;;;;;8.23;68.48;100252.12;211496;1335;139219;-58
2021/11/15 12:57:09;;;;;;;68.90;33.10;;;;;;;8.22;68.42;100245.60;212124;1329;140598;-56
2021/11/15 13:02:12;;;;;;;69.30;33.10;;;;;;;8.29;68.62;100245.21;211826;1325;139835;-58
2021/11/15 13:07:19;;;;;;;70.00;33.50;;;;;;;8.35;68.72;100247.84;212638;1327;139183;-57
2021/11/15 13:12:23;;;;;;;72.70;35.00;;;;;;;8.38;68.52;100251.48;211597;1327;140252;-60
2021/11/15 13:17:28;;;;;;;72.70;34.80;;;;;;;8.36;68.43;100251.19;212224;1325;139503;-59
2021/11/15 13:22:32;;;;;;;79.80;34.20;;;;;;;8.35;68.37;100246.78;211836;1319;140280;-57
2021/11/15 13:27:35;;;;;;;73.40;34.00;;;;;;;8.36;68.50;100238.62;212059;1329;139453;-58
2021/11/15 13:32:42;;;;;;;83.60;35.80;;;;;;;8.38;68.52;100233.27;212106;1324;139470;-58
2021/11/15 13:37:46;;;;;;;72.90;35.10;;;;;;;8.40;68.63;100235.48;211685;1329;140222;-57
2021/11/15 13:42:49;;;;;;;71.40;34.10;;;;;;;8.48;68.74;100234.34;211698;1330;139928;-58
2021/11/15 13:47:53;;;;;;;74.30;35.10;;;;;;;8.52;68.61;100228.56;211784;1325;139621;-57
2021/11/15 13:52:56;;;;;;;70.10;35.00;;;;;;;8.53;68.39;100234.17;211732;1325;139421;-58
2021/11/15 13:58:00;;;;;;;72.40;34.90;;;;;;;8.53;68.30;100235.25;212458;1325;139416;-58
2021/11/15 14:03:04;;;;;;;76.90;34.90;;;;;;;8.51;68.24;100244.50;211433;1331;140464;-59
2021/11/15 14:08:07;;;;;;;71.40;33.90;;;;;;;8.49;68.22;100247.04;212104;1325;139605;-57
2021/11/15 14:13:10;;;;;;;70.30;36.10;;;;;;;8.47;68.22;100241.11;211822;1331;141722;-59
2021/11/15 14:18:13;;;;;;;67.20;35.60;;;;;;;8.44;68.18;100239.80;211915;1326;139267;-59
2021/11/15 14:23:16;;;;;;;71.40;35.30;;;;;;;8.43;68.20;100241.04;211804;1331;139598;-57
2021/11/15 14:28:22;;;;;;;71.90;34.70;;;;;;;8.45;68.21;100242.05;212297;1328;141584;-55
2021/11/15 14:33:25;;;;;;;77.00;38.30;;;;;;;8.48;68.22;100246.73;211973;1324;139651;-56
2021/11/15 14:38:28;;;;;;;72.50;36.30;;;;;;;8.50;68.46;100241.50;211682;1325;140090;-59
2021/11/15 14:43:32;;;;;;;70.40;36.20;;;;;;;8.53;68.21;100247.96;211920;1325;139195;-59
2021/11/15 14:48:35;;;;;;;79.50;37.40;;;;;;;8.55;68.11;100247.73;212268;1325;139156;-58
2021/11/15 14:53:39;;;;;;;74.80;37.10;;;;;;;8.56;68.21;100247.88;211726;1329;139676;-58
2021/11/15 14:58:42;;;;;;;73.50;37.30;;;;;;;8.56;68.14;100252.64;211452;1332;139487;-57
2021/11/15 15:03:46;;;;;;;72.50;37.50;;;;;;;8.52;67.89;100249.94;211700;1329;138955;-57
2021/11/15 15:08:51;;;;;;;74.70;36.70;;;;;;;8.49;68.07;100251.99;211893;1325;140242;-56
2021/11/15 15:13:54;;;;;;;74.30;37.40;;;;;;;8.49;68.09;100255.88;211804;1331;140016;-59
2021/11/15 15:18:57;;;;;;;444.80;283.30;;;;;;;8.53;68.24;100253.45;212414;1325;139618;-59
2021/11/15 15:24:02;;;;;;;71.60;40.10;;;;;;;8.64;68.51;100260.33;212517;1325;139835;-57
2021/11/15 15:29:06;;;;;;;72.50;36.90;;;;;;;8.69;68.16;100260.17;212044;1328;140318;-56
2021/11/15 15:34:10;;;;;;;74.10;38.10;;;;;;;8.63;68.10;100260.73;212987;1324;139034;-57
2021/11/15 15:39:14;;;;;;;69.30;37.70;;;;;;;8.60;67.96;100262.25;211796;1325;139716;-56
2021/11/15 15:44:17;;;;;;;74.40;37.40;;;;;;;8.57;68.12;100256.52;211736;1325;139664;-58
2021/11/15 15:49:24;;;;;;;67.20;37.80;;;;;;;8.55;68.12;100251.24;211639;1324;139869;-56
2021/11/15 15:54:27;;;;;;;67.80;36.50;;;;;;;8.56;68.28;100248.95;212284;1324;139645;-58
2021/11/15 15:59:32;;;;;;;;;;;;;;;8.57;68.07;100249.95;211613;1325;140647;-56
2021/11/15 16:16:50;;;;;;;69.90;38.50;;;;;;;8.71;67.99;100246.45;211942;1324;139472;-57
2021/11/15 16:21:11;;;;;;;66.70;38.10;;;;;;;8.73;68.09;100249.58;211654;1332;139724;-58
2021/11/15 16:26:15;;;;;;;67.80;37.40;;;;;;;8.73;67.94;100249.58;211906;1325;140790;-56
2021/11/15 16:31:27;;;;;;;65.40;38.50;;;;;;;8.73;67.96;100252.42;212023;1325;139564;-58
2021/11/15 16:36:31;;;;;;;95.00;51.70;;;;;;;9.04;69.73;100250.58;211581;1331;139584;-55
2021/11/15 16:41:34;;;;;;;73.90;38.90;;;;;;;9.50;68.56;100247.84;211797;1324;140039;-58
2021/11/15 16:46:37;;;;;;;69.70;38.80;;;;;;;9.41;67.63;100252.40;211820;1325;139916;-57
2021/11/15 16:51:40;;;;;;;67.70;39.20;;;;;;;9.30;67.38;100251.25;211810;1328;140444;-56
2021/11/15 16:56:44;;;;;;;64.10;37.40;;;;;;;9.19;67.37;100253.92;211676;1331;140172;-56
2021/11/15 17:01:58;;;;;;;64.00;35.70;;;;;;;9.09;67.28;100259.45;211581;1331;139376;-57
2021/11/15 17:07:01;;;;;;;66.10;36.50;;;;;;;8.95;67.18;100266.13;211911;1328;139476;-59
2021/11/15 17:12:08;;;;;;;60.10;35.60;;;;;;;8.86;67.19;100267.73;212115;1325;139193;-57
2021/11/15 17:17:12;;;;;;;58.50;33.50;;;;;;;8.78;67.14;100268.16;212214;1324;140106;-58
2021/11/15 17:22:16;;;;;;;52.20;32.70;;;;;;;8.70;67.24;100268.63;211962;1324;140419;-57
2021/11/15 17:27:19;;;;;;;49.70;31.40;;;;;;;8.69;67.33;100268.99;212582;1325;140621;-58
2021/11/15 17:32:22;;;;;;;52.30;32.20;;;;;;;8.72;67.40;100269.43;212062;1325;140188;-56
2021/11/15 17:37:25;;;;;;;56.80;33.80;;;;;;;8.76;67.41;100274.59;211948;1324;140205;-57
2021/11/15 17:42:28;;;;;;;53.20;33.10;;;;;;;8.72;67.18;100272.41;211808;1324;140113;-56
2021/11/15 17:47:33;;;;;;;54.30;32.40;;;;;;;8.70;67.13;100268.98;211633;1332;139757;-58
2021/11/15 17:52:50;;;;;;;57.30;34.40;;;;;;;8.63;67.17;100265.30;212394;1324;140491;-55
2021/11/15 17:57:54;;;;;;;53.20;31.40;;;;;;;8.56;67.16;100266.27;212263;1325;139393;-58
2021/11/15 18:02:57;;;;;;;57.40;33.30;;;;;;;8.50;67.24;100261.51;212001;1321;140174;-58
2021/11/15 18:08:01;;;;;;;54.70;31.90;;;;;;;8.51;67.27;100264.14;211936;1325;139421;-59
2021/11/15 18:13:10;;;;;;;56.00;32.50;;;;;;;8.50;67.32;100260.98;212040;1325;142308;-58
2021/11/15 18:18:19;;;;;;;58.20;34.00;;;;;;;8.51;67.16;100256.01;212308;1325;140556;-58
2021/11/15 18:23:22;;;;;;;315.00;224.10;;;;;;;8.62;67.90;100258.63;212028;1323;140489;-59
2021/11/15 18:28:25;;;;;;;60.20;35.80;;;;;;;8.90;68.18;100257.30;212023;1324;140158;-58
2021/11/15 18:33:28;;;;;;;51.90;32.60;;;;;;;8.87;67.32;100255.80;211848;1331;139455;-57
2021/11/15 18:38:33;;;;;;;58.20;33.80;;;;;;;8.80;67.20;100255.70;211863;1325;140012;-58
2021/11/15 18:43:38;;;;;;;56.00;35.70;;;;;;;8.71;66.98;100250.36;211353;1327;139870;-58
2021/11/15 18:48:43;;;;;;;59.30;35.20;;;;;;;8.62;67.04;100250.66;211810;1328;140464;-60
2021/11/15 18:53:48;;;;;;;61.10;35.90;;;;;;;8.55;67.06;100248.61;212037;1329;139715;-58
2021/11/15 18:58:52;;;;;;;62.00;33.60;;;;;;;8.49;67.10;100249.16;212111;1325;139087;-59
2021/11/15 19:03:57;;;;;;;60.00;34.80;;;;;;;8.47;67.10;100249.39;211804;1327;139138;-58
2021/11/15 19:09:10;;;;;;;59.10;34.20;;;;;;;8.45;67.10;100250.53;212037;1318;141730;-58
2021/11/15 19:14:13;;;;;;;61.00;36.30;;;;;;;8.49;67.35;100244.76;212510;1320;206376;-59
2021/11/15 19:19:16;;;;;;;62.20;35.20;;;;;;;8.55;67.26;100248.43;212462;1328;139751;-58
2021/11/15 19:24:20;;;;;;;58.40;35.60;;;;;;;8.55;67.25;100253.20;211853;1327;139664;-58
2021/11/15 19:29:25;;;;;;;62.70;37.30;;;;;;;8.53;67.27;100254.70;212175;1324;141455;-58
2021/11/15 19:34:31;;;;;;;62.60;36.00;;;;;;;8.52;67.29;100250.66;211886;1325;140283;-58
2021/11/15 19:39:35;;;;;;;88.90;51.40;;;;;;;8.53;67.60;100252.73;211674;1332;140361;-58
2021/11/15 19:44:39;;;;;;;65.30;37.60;;;;;;;8.62;67.53;100254.55;211813;1329;140857;-58
2021/11/15 19:49:42;;;;;;;65.50;35.90;;;;;;;8.59;67.19;100255.72;211709;1325;140167;-61
2021/11/15 19:54:45;;;;;;;66.80;38.60;;;;;;;8.54;67.14;100252.35;211918;1329;141389;-58
2021/11/15 19:59:49;;;;;;;64.10;38.30;;;;;;;8.55;67.19;100256.92;211536;1329;140545;-61
2021/11/15 20:04:52;;;;;;;68.20;37.20;;;;;;;8.56;67.21;100251.06;212029;1325;139697;-62
2021/11/15 20:09:55;;;;;;;68.50;38.90;;;;;;;8.55;67.28;100250.39;211642;1325;139636;-59
2021/11/15 20:14:58;;;;;;;65.80;39.40;;;;;;;8.56;67.42;100253.01;212468;1327;141131;-59
2021/11/15 20:20:03;;;;;;;69.40;40.40;;;;;;;8.55;67.11;100253.73;212458;1324;139766;-58
2021/11/15 20:25:09;;;;;;;66.20;39.80;;;;;;;8.53;67.16;100254.88;211895;1333;139787;-60
2021/11/15 20:30:16;;;;;;;68.40;40.60;;;;;;;8.49;67.14;100248.81;212416;1325;138919;-59
2021/11/15 20:35:24;;;;;;;68.50;39.70;;;;;;;8.47;67.29;100250.11;212338;1328;139071;-63
2021/11/15 20:40:31;;;;;;;65.20;37.70;;;;;;;8.48;67.36;100255.90;211988;1325;140037;-58
2021/11/15 20:45:35;;;;;;;60.90;37.00;;;;;;;8.50;67.40;100257.77;211533;1326;140196;-61
2021/11/15 20:50:40;;;;;;;67.60;39.70;;;;;;;8.55;67.32;100250.38;211779;1325;140633;-61
2021/11/15 20:55:46;;;;;;;68.00;39.10;;;;;;;8.57;67.32;100249.26;212180;1329;139416;-57
2021/11/15 21:00:55;;;;;;;65.60;39.40;;;;;;;8.64;67.40;100242.09;211669;1327;139630;-56
2021/11/15 21:06:05;;;;;;;105.40;58.50;;;;;;;8.67;67.43;100230.30;211296;1334;140314;-58
2021/11/15 21:11:12;;;;;;;73.10;42.00;;;;;;;8.73;67.44;100236.66;212601;1327;140254;-58
2021/11/15 21:16:17;;;;;;;72.10;40.80;;;;;;;8.70;67.17;100234.30;212386;1323;140425;-58
2021/11/15 21:21:24;;;;;;;67.40;40.40;;;;;;;8.66;67.18;100236.39;212294;1325;140432;-56
2021/11/15 21:26:39;;;;;;;69.60;40.60;;;;;;;8.62;67.15;100230.14;212514;1325;140143;-59
2021/11/15 21:31:42;;;;;;;75.90;40.60;;;;;;;8.57;67.07;100228.73;211727;1323;140283;-58
2021/11/15 21:36:46;;;;;;;70.40;37.70;;;;;;;8.55;67.22;100229.67;212080;1324;140226;-59
2021/11/15 21:41:50;;;;;;;75.50;41.10;;;;;;;8.58;67.35;100225.69;212124;1323;140394;-59
2021/11/15 21:46:53;;;;;;;67.50;38.80;;;;;;;8.62;67.41;100229.27;212094;1325;141129;-57
2021/11/15 21:52:11;;;;;;;67.10;38.70;;;;;;;8.65;67.38;100220.85;211840;1331;139441;-59
2021/11/15 21:57:15;;;;;;;64.20;38.10;;;;;;;8.64;67.15;100215.42;212133;1328;142540;-57
2021/11/15 22:02:22;;;;;;;69.60;41.50;;;;;;;8.60;67.31;100211.62;211989;1328;140463;-60
2021/11/15 22:07:25;;;;;;;72.80;40.00;;;;;;;8.59;67.19;100212.04;211806;1325;140422;-64
2021/11/15 22:12:28;;;;;;;66.90;39.50;;;;;;;8.57;67.16;100209.30;211694;1328;140007;-65
2021/11/15 22:17:31;;;;;;;70.60;39.60;;;;;;;8.52;67.31;100209.11;211462;1331;140450;-63
2021/11/15 22:22:35;;;;;;;63.90;37.90;;;;;;;8.51;67.19;100210.35;212037;1331;139341;-63
2021/11/15 22:27:40;;;;;;;68.50;39.70;;;;;;;8.52;67.17;100208.39;211595;1325;139711;-60
2021/11/15 22:32:43;;;;;;;67.90;39.50;;;;;;;8.54;67.28;100204.95;211695;1334;139206;-63
2021/11/15 22:37:46;;;;;;;70.20;39.20;;;;;;;8.56;67.18;100205.98;211700;1331;139343;-61
2021/11/15 22:42:49;;;;;;;71.50;42.50;;;;;;;8.57;67.42;100204.33;212006;1331;138933;-62
2021/11/15 22:47:53;;;;;;;73.60;42.10;;;;;;;8.59;67.40;100207.98;212099;1325;140669;-60
2021/11/15 22:52:56;;;;;;;75.20;42.50;;;;;;;8.61;67.36;100208.05;211719;1333;141360;-58
2021/11/15 22:58:00;;;;;;;80.60;44.10;;;;;;;8.58;67.13;100205.17;211626;1323;139633;-57
2021/11/15 23:03:03;;;;;;;78.40;45.50;;;;;;;8.50;67.22;100204.38;211991;1325;140252;-59
2021/11/15 23:08:06;;;;;;;77.90;44.20;;;;;;;8.45;67.25;100201.02;211842;1324;139496;-58
2021/11/15 23:13:09;;;;;;;71.60;41.80;;;;;;;8.42;67.38;100203.60;211668;1328;139633;-59